createdAt,value
2016-11-07T00:00:20.940Z,0
2016-11-07T00:01:34.463Z,0
2016-11-07T00:02:47.464Z,0
2016-11-07T00:04:00.753Z,0
2016-11-07T00:05:13.806Z,0
2016-11-07T00:06:27.107Z,0
2016-11-07T00:07:40.709Z,0
2016-11-07T00:08:53.719Z,0
2016-11-07T00:10:07.900Z,0
2016-11-07T00:11:21.028Z,0
2016-11-07T00:13:05.072Z,0
2016-11-07T00:14:18.595Z,0
2016-11-07T00:17:17.309Z,0
2016-11-07T00:18:30.393Z,0
2016-11-07T00:19:43.638Z,0
2016-11-07T00:20:56.709Z,0
2016-11-07T00:22:09.786Z,0
2016-11-07T00:23:23.136Z,0
2016-11-07T00:24:35.648Z,0
2016-11-07T00:25:49.297Z,0
2016-11-07T00:27:02.961Z,0
2016-11-07T00:28:47.246Z,0
2016-11-07T00:30:00.858Z,0
2016-11-07T00:31:14.213Z,0
2016-11-07T00:32:26.760Z,0
2016-11-07T00:33:40.390Z,0
2016-11-07T00:34:53.450Z,0
2016-11-07T00:36:06.555Z,0
2016-11-07T00:37:20.430Z,0
2016-11-07T00:38:33.485Z,0
2016-11-07T00:39:46.002Z,0
2016-11-07T00:40:59.551Z,0
2016-11-07T00:42:13.189Z,0
2016-11-07T00:43:26.791Z,0
2016-11-07T00:44:39.957Z,0
2016-11-07T00:45:52.455Z,0
2016-11-07T00:47:05.534Z,0
2016-11-07T00:48:18.601Z,0
2016-11-07T00:49:32.158Z,0
2016-11-07T00:50:45.216Z,0
2016-11-07T00:51:58.878Z,0
2016-11-07T00:53:12.393Z,0
2016-11-07T00:54:25.992Z,0
2016-11-07T00:55:39.643Z,0
2016-11-07T00:56:53.459Z,0
2016-11-07T00:58:06.913Z,0
2016-11-07T00:59:20.514Z,0
2016-11-07T01:00:33.568Z,0
2016-11-07T01:01:47.369Z,0
2016-11-07T01:03:00.410Z,0
2016-11-07T01:04:14.086Z,0
2016-11-07T01:05:27.832Z,0
2016-11-07T01:06:40.859Z,0
2016-11-07T01:07:53.910Z,0
2016-11-07T01:09:06.846Z,0
2016-11-07T01:10:19.435Z,0
2016-11-07T01:11:31.931Z,0
2016-11-07T01:12:44.951Z,0
2016-11-07T01:13:58.552Z,0
2016-11-07T01:15:11.848Z,0
2016-11-07T01:16:25.407Z,0
2016-11-07T01:17:38.982Z,0
2016-11-07T01:18:52.475Z,0
2016-11-07T01:20:06.023Z,0
2016-11-07T01:21:19.562Z,0
2016-11-07T01:22:32.645Z,0
2016-11-07T01:23:46.300Z,0
2016-11-07T01:24:59.473Z,0
2016-11-07T01:26:13.028Z,0
2016-11-07T01:27:26.526Z,0
2016-11-07T01:28:39.535Z,0
2016-11-07T01:29:53.093Z,0
2016-11-07T01:31:06.683Z,0
2016-11-07T01:32:20.339Z,0
2016-11-07T01:33:33.430Z,0
2016-11-07T01:34:47.209Z,0
2016-11-07T01:36:00.249Z,0
2016-11-07T01:37:12.514Z,0
2016-11-07T01:38:25.534Z,0
2016-11-07T01:39:39.077Z,0
2016-11-07T01:40:52.671Z,0
2016-11-07T01:42:06.299Z,0
2016-11-07T01:43:19.897Z,0
2016-11-07T01:44:32.672Z,0
2016-11-07T01:45:46.189Z,0
2016-11-07T01:46:59.745Z,0
2016-11-07T01:48:13.373Z,0
2016-11-07T01:49:26.429Z,0
2016-11-07T01:50:39.577Z,0
2016-11-07T01:51:53.503Z,0
2016-11-07T01:53:06.544Z,0
2016-11-07T01:54:20.301Z,0
2016-11-07T01:55:33.859Z,0
2016-11-07T01:56:47.293Z,0
2016-11-07T01:58:00.894Z,0
2016-11-07T01:59:14.427Z,0
2016-11-07T02:00:27.827Z,0
2016-11-07T02:01:40.354Z,0
2016-11-07T02:02:53.515Z,0
2016-11-07T02:04:06.564Z,0
2016-11-07T02:05:20.300Z,0
2016-11-07T02:06:33.934Z,0
2016-11-07T02:07:47.296Z,0
2016-11-07T02:09:00.086Z,0
2016-11-07T02:10:13.096Z,0
2016-11-07T02:11:26.243Z,0
2016-11-07T02:12:39.893Z,0
2016-11-07T02:13:53.521Z,0
2016-11-07T02:15:07.153Z,0
2016-11-07T02:16:20.397Z,0
2016-11-07T02:18:05.095Z,0
2016-11-07T02:19:18.648Z,0
2016-11-07T02:20:32.254Z,0
2016-11-07T02:21:45.917Z,0
2016-11-07T02:22:59.520Z,0
2016-11-07T02:24:13.143Z,0
2016-11-07T02:25:26.745Z,0
2016-11-07T02:26:39.783Z,0
2016-11-07T02:27:53.433Z,0
2016-11-07T02:29:06.542Z,0
2016-11-07T02:30:20.405Z,0
2016-11-07T02:31:33.959Z,0
2016-11-07T02:32:47.529Z,0
2016-11-07T02:34:00.548Z,0
2016-11-07T02:35:13.594Z,0
2016-11-07T02:36:27.155Z,0
2016-11-07T02:37:40.723Z,0
2016-11-07T02:38:54.335Z,0
2016-11-07T02:40:07.949Z,0
2016-11-07T02:41:21.209Z,0
2016-11-07T02:42:34.835Z,0
2016-11-07T02:43:48.390Z,0
2016-11-07T02:45:01.449Z,0
2016-11-07T02:46:15.016Z,0
2016-11-07T02:47:28.064Z,0
2016-11-07T02:48:41.638Z,0
2016-11-07T02:49:55.217Z,0
2016-11-07T02:51:08.833Z,0
2016-11-07T02:52:21.817Z,0
2016-11-07T02:53:35.410Z,0
2016-11-07T02:54:48.043Z,0
2016-11-07T02:56:01.593Z,0
2016-11-07T02:57:14.017Z,0
2016-11-07T02:58:27.867Z,0
2016-11-07T02:59:40.967Z,0
2016-11-07T03:00:54.512Z,0
2016-11-07T03:02:08.156Z,0
2016-11-07T03:03:21.759Z,0
2016-11-07T03:04:35.273Z,0
2016-11-07T03:05:48.867Z,0
2016-11-07T03:07:01.988Z,0
2016-11-07T03:08:15.631Z,0
2016-11-07T03:09:29.192Z,0
2016-11-07T03:10:41.589Z,0
2016-11-07T03:11:54.130Z,0
2016-11-07T03:13:07.194Z,0
2016-11-07T03:14:20.769Z,0
2016-11-07T03:15:34.342Z,0
2016-11-07T03:16:47.950Z,0
2016-11-07T03:18:32.623Z,0
2016-11-07T03:19:46.273Z,0
2016-11-07T03:20:59.354Z,0
2016-11-07T03:22:12.970Z,0
2016-11-07T03:23:26.053Z,0
2016-11-07T03:24:39.638Z,0
2016-11-07T03:25:53.358Z,0
2016-11-07T03:27:06.976Z,0
2016-11-07T03:28:20.250Z,0
2016-11-07T03:29:33.278Z,0
2016-11-07T03:30:46.820Z,0
2016-11-07T03:32:00.439Z,0
2016-11-07T03:33:13.546Z,0
2016-11-07T03:34:27.188Z,0
2016-11-07T03:35:40.796Z,0
2016-11-07T03:36:54.457Z,0
2016-11-07T03:38:08.051Z,0
2016-11-07T03:39:19.479Z,0
2016-11-07T03:40:31.996Z,0
2016-11-07T03:41:45.015Z,0
2016-11-07T03:42:58.366Z,0
2016-11-07T03:44:11.416Z,0
2016-11-07T03:45:24.513Z,0
2016-11-07T03:46:38.066Z,0
2016-11-07T03:47:51.105Z,0
2016-11-07T03:49:04.656Z,0
2016-11-07T03:50:17.952Z,0
2016-11-07T03:51:31.538Z,0
2016-11-07T03:52:44.611Z,0
2016-11-07T03:53:57.904Z,0
2016-11-07T03:55:11.027Z,0
2016-11-07T03:56:24.633Z,0
2016-11-07T03:57:37.938Z,0
2016-11-07T03:58:51.540Z,0
2016-11-07T04:00:04.539Z,0
2016-11-07T04:01:17.626Z,0
2016-11-07T04:02:30.597Z,0
2016-11-07T04:03:43.653Z,0
2016-11-07T04:04:56.918Z,0
2016-11-07T04:06:10.577Z,0
2016-11-07T04:07:24.123Z,0
2016-11-07T04:08:37.672Z,0
2016-11-07T04:09:50.631Z,0
2016-11-07T04:11:03.709Z,0
2016-11-07T04:12:17.351Z,0
2016-11-07T04:13:30.395Z,0
2016-11-07T04:14:43.498Z,0
2016-11-07T04:15:55.971Z,0
2016-11-07T04:17:09.559Z,0
2016-11-07T04:18:23.298Z,0
2016-11-07T04:19:36.891Z,0
2016-11-07T04:20:50.480Z,0
2016-11-07T04:22:04.075Z,0
2016-11-07T04:23:17.628Z,0
2016-11-07T04:24:31.004Z,0
2016-11-07T04:25:44.400Z,0
2016-11-07T04:26:58.045Z,0
2016-11-07T04:28:11.600Z,0
2016-11-07T04:29:25.238Z,0
2016-11-07T04:30:38.945Z,0
2016-11-07T04:31:52.152Z,0
2016-11-07T04:33:05.222Z,0
2016-11-07T04:34:17.849Z,0
2016-11-07T04:35:31.418Z,0
2016-11-07T04:36:45.153Z,0
2016-11-07T04:37:58.785Z,0
2016-11-07T04:39:11.913Z,0
2016-11-07T04:40:24.449Z,0
2016-11-07T04:41:38.156Z,0
2016-11-07T04:42:51.815Z,0
2016-11-07T04:44:04.872Z,0
2016-11-07T04:45:17.983Z,0
2016-11-07T04:46:31.128Z,0
2016-11-07T04:47:44.268Z,0
2016-11-07T04:48:57.932Z,0
2016-11-07T04:50:11.558Z,0
2016-11-07T04:51:25.065Z,0
2016-11-07T04:52:38.733Z,0
2016-11-07T04:53:52.310Z,0
2016-11-07T04:55:05.909Z,0
2016-11-07T04:56:19.299Z,0
2016-11-07T04:57:32.910Z,0
2016-11-07T04:58:45.999Z,0
2016-11-07T04:59:59.674Z,0
2016-11-07T05:01:12.748Z,0
2016-11-07T05:02:26.504Z,0
2016-11-07T05:03:40.037Z,0
2016-11-07T05:04:53.680Z,0
2016-11-07T05:06:07.260Z,0
2016-11-07T05:07:20.874Z,0
2016-11-07T05:08:33.924Z,0
2016-11-07T05:09:47.510Z,0
2016-11-07T05:11:01.094Z,0
2016-11-07T05:12:45.748Z,0
2016-11-07T05:13:58.796Z,0
2016-11-07T05:15:12.128Z,0
2016-11-07T05:16:25.845Z,0
2016-11-07T05:17:39.476Z,0
2016-11-07T05:18:52.555Z,0
2016-11-07T05:20:05.674Z,0
2016-11-07T05:21:19.241Z,0
2016-11-07T05:22:31.967Z,0
2016-11-07T05:23:45.578Z,0
2016-11-07T05:24:59.224Z,0
2016-11-07T05:26:12.845Z,0
2016-11-07T05:27:26.574Z,0
2016-11-07T05:28:39.623Z,0
2016-11-07T05:29:53.645Z,0
2016-11-07T05:31:07.216Z,0
2016-11-07T05:32:20.660Z,0
2016-11-07T05:33:33.691Z,0
2016-11-07T05:34:47.297Z,0
2016-11-07T05:36:00.907Z,0
2016-11-07T05:37:14.544Z,0
2016-11-07T05:38:28.116Z,0
2016-11-07T05:39:41.716Z,0
2016-11-07T05:40:55.287Z,0
2016-11-07T05:42:08.827Z,0
2016-11-07T05:43:22.421Z,0
2016-11-07T05:44:36.049Z,0
2016-11-07T05:45:49.706Z,0
2016-11-07T05:47:03.338Z,0
2016-11-07T05:48:16.938Z,0
2016-11-07T05:49:30.827Z,0
2016-11-07T05:50:43.921Z,0
2016-11-07T05:51:57.552Z,0
2016-11-07T05:53:11.210Z,0
2016-11-07T05:54:24.863Z,0
2016-11-07T05:55:38.520Z,0
2016-11-07T05:56:52.250Z,0
2016-11-07T05:58:04.239Z,0
2016-11-07T05:59:17.407Z,0
2016-11-07T06:00:30.159Z,0
2016-11-07T06:01:43.762Z,0
2016-11-07T06:02:56.783Z,0
2016-11-07T06:04:10.508Z,0
2016-11-07T06:05:23.644Z,0
2016-11-07T06:06:36.220Z,0
2016-11-07T06:07:49.737Z,0
2016-11-07T06:09:03.389Z,0
2016-11-07T06:10:17.022Z,0
2016-11-07T06:11:30.682Z,0
2016-11-07T06:12:44.244Z,0
2016-11-07T06:13:57.908Z,0
2016-11-07T06:15:11.501Z,0
2016-11-07T06:16:24.627Z,0
2016-11-07T06:17:38.221Z,0
2016-11-07T06:18:51.295Z,0
2016-11-07T06:20:04.878Z,0
2016-11-07T06:21:18.472Z,0
2016-11-07T06:22:31.554Z,0
2016-11-07T06:23:44.624Z,0
2016-11-07T06:24:58.015Z,0
2016-11-07T06:26:11.651Z,0
2016-11-07T06:27:24.725Z,0
2016-11-07T06:28:38.353Z,0
2016-11-07T06:29:51.993Z,0
2016-11-07T06:31:05.113Z,0
2016-11-07T06:32:18.738Z,0
2016-11-07T06:33:31.310Z,0
2016-11-07T06:34:45.020Z,0
2016-11-07T06:35:58.811Z,0
2016-11-07T06:37:12.468Z,0
2016-11-07T06:38:25.509Z,0
2016-11-07T06:39:38.557Z,0
2016-11-07T06:40:52.158Z,0
2016-11-07T06:42:05.220Z,0
2016-11-07T06:43:32.769Z,0
2016-11-07T06:44:46.181Z,0
2016-11-07T06:45:59.251Z,0
2016-11-07T06:47:12.831Z,0
2016-11-07T06:48:26.192Z,0
2016-11-07T06:49:39.063Z,0
2016-11-07T06:50:52.697Z,0
2016-11-07T06:52:06.406Z,0
2016-11-07T06:53:20.034Z,0
2016-11-07T06:54:33.138Z,0
2016-11-07T06:55:46.832Z,0
2016-11-07T06:56:59.954Z,0
2016-11-07T06:58:13.596Z,0
2016-11-07T06:59:26.883Z,0
2016-11-07T07:00:39.496Z,0
2016-11-07T07:01:52.558Z,0
2016-11-07T07:03:05.911Z,0
2016-11-07T07:04:19.503Z,0
2016-11-07T07:05:33.048Z,0
2016-11-07T07:06:46.606Z,0
2016-11-07T07:07:59.940Z,0
2016-11-07T07:09:12.974Z,0
2016-11-07T07:10:26.215Z,0
2016-11-07T07:11:39.807Z,0
2016-11-07T07:12:53.628Z,0
2016-11-07T07:14:07.295Z,0
2016-11-07T07:15:20.626Z,0
2016-11-07T07:16:33.204Z,0
2016-11-07T07:17:46.242Z,0
2016-11-07T07:18:58.709Z,0
2016-11-07T07:20:12.340Z,0
2016-11-07T07:21:25.883Z,0
2016-11-07T07:22:38.906Z,0
2016-11-07T07:23:52.430Z,0
2016-11-07T07:25:06.064Z,0
2016-11-07T07:26:19.668Z,0
2016-11-07T07:27:33.305Z,0
2016-11-07T07:28:46.864Z,0
2016-11-07T07:30:00.481Z,0
2016-11-07T07:31:14.110Z,0
2016-11-07T07:32:27.362Z,0
2016-11-07T07:33:40.445Z,0
2016-11-07T07:34:54.083Z,0
2016-11-07T07:36:07.201Z,0
2016-11-07T07:37:20.532Z,0
2016-11-07T07:38:34.132Z,0
2016-11-07T07:39:47.858Z,0
2016-11-07T07:41:01.006Z,0
2016-11-07T07:42:14.695Z,0
2016-11-07T07:43:27.856Z,0
2016-11-07T07:44:41.542Z,0
2016-11-07T07:45:54.840Z,0
2016-11-07T07:47:08.495Z,0
2016-11-07T07:48:21.544Z,0
2016-11-07T07:49:35.125Z,0
2016-11-07T07:50:48.232Z,0
2016-11-07T07:52:01.855Z,0
2016-11-07T07:53:14.900Z,0
2016-11-07T07:54:27.930Z,0
2016-11-07T07:55:41.219Z,0
2016-11-07T07:56:54.348Z,0
2016-11-07T07:58:08.000Z,0
2016-11-07T07:59:21.721Z,0
2016-11-07T08:00:34.824Z,0
2016-11-07T08:01:47.922Z,0
2016-11-07T08:03:01.500Z,4
2016-11-07T08:04:15.137Z,0
2016-11-07T08:05:28.760Z,4
2016-11-07T08:06:40.840Z,4
2016-11-07T08:07:53.871Z,4
2016-11-07T08:09:06.969Z,8
2016-11-07T08:10:20.044Z,4
2016-11-07T08:11:33.059Z,12
2016-11-07T08:12:46.755Z,8
2016-11-07T08:14:00.439Z,16
2016-11-07T08:15:13.287Z,16
2016-11-07T08:16:26.908Z,20
2016-11-07T08:17:39.429Z,24
2016-11-07T08:18:53.024Z,28
2016-11-07T08:20:06.591Z,32
2016-11-07T08:21:19.122Z,36
2016-11-07T08:23:03.343Z,40
2016-11-07T08:24:16.976Z,44
2016-11-07T08:25:29.490Z,48
2016-11-07T08:26:42.518Z,56
2016-11-07T08:27:56.132Z,60
2016-11-07T08:29:09.739Z,68
2016-11-07T08:30:23.343Z,72
2016-11-07T08:31:36.676Z,76
2016-11-07T08:32:50.646Z,80
2016-11-07T08:34:04.280Z,84
2016-11-07T08:35:17.492Z,96
2016-11-07T08:36:31.110Z,96
2016-11-07T08:37:44.728Z,100
2016-11-07T08:38:57.786Z,108
2016-11-07T08:40:11.391Z,112
2016-11-07T08:41:25.014Z,116
2016-11-07T08:42:38.630Z,132
2016-11-07T08:43:51.770Z,148
2016-11-07T08:45:05.409Z,152
2016-11-07T08:46:18.429Z,156
2016-11-07T08:47:32.018Z,164
2016-11-07T08:48:45.666Z,160
2016-11-07T08:49:59.300Z,168
2016-11-07T08:51:12.829Z,188
2016-11-07T08:52:25.353Z,216
2016-11-07T08:53:38.956Z,212
2016-11-07T08:54:52.625Z,228
2016-11-07T08:56:05.667Z,264
2016-11-07T08:57:18.744Z,268
2016-11-07T08:58:31.819Z,260
2016-11-07T08:59:45.519Z,276
2016-11-07T09:00:59.159Z,256
2016-11-07T09:02:12.531Z,256
2016-11-07T09:03:26.210Z,252
2016-11-07T09:04:39.952Z,264
2016-11-07T09:05:53.082Z,276
2016-11-07T09:07:06.117Z,280
2016-11-07T09:08:19.251Z,316
2016-11-07T09:09:32.418Z,328
2016-11-07T09:10:45.260Z,336
2016-11-07T09:11:58.989Z,340
2016-11-07T09:13:12.605Z,340
2016-11-07T09:14:25.696Z,384
2016-11-07T09:15:39.316Z,408
2016-11-07T09:16:52.993Z,412
2016-11-07T09:18:06.635Z,408
2016-11-07T09:19:19.705Z,440
2016-11-07T09:20:33.272Z,424
2016-11-07T09:21:46.813Z,420
2016-11-07T09:23:00.493Z,444
2016-11-07T09:24:14.083Z,404
2016-11-07T09:25:27.710Z,428
2016-11-07T09:26:40.827Z,452
2016-11-07T09:27:54.412Z,464
2016-11-07T09:29:06.424Z,488
2016-11-07T09:30:20.116Z,520
2016-11-07T09:31:33.172Z,508
2016-11-07T09:32:46.740Z,532
2016-11-07T09:33:59.771Z,532
2016-11-07T09:35:13.343Z,552
2016-11-07T09:36:26.925Z,524
2016-11-07T09:37:40.530Z,496
2016-11-07T09:38:54.214Z,536
2016-11-07T09:40:07.959Z,588
2016-11-07T09:41:21.291Z,600
2016-11-07T09:42:34.397Z,616
2016-11-07T09:43:47.472Z,632
2016-11-07T09:45:01.067Z,636
2016-11-07T09:46:14.680Z,612
2016-11-07T09:47:28.258Z,568
2016-11-07T09:48:41.329Z,500
2016-11-07T09:49:54.387Z,556
2016-11-07T09:51:08.175Z,600
2016-11-07T09:52:21.320Z,552
2016-11-07T09:53:34.822Z,572
2016-11-07T09:54:47.890Z,600
2016-11-07T09:56:01.876Z,592
2016-11-07T09:57:15.434Z,572
2016-11-07T09:58:29.100Z,564
2016-11-07T09:59:42.723Z,644
2016-11-07T10:00:56.379Z,588
2016-11-07T10:02:09.447Z,548
2016-11-07T10:03:23.021Z,536
2016-11-07T10:04:36.691Z,552
2016-11-07T10:05:50.549Z,552
2016-11-07T10:07:04.084Z,504
2016-11-07T10:08:16.612Z,444
2016-11-07T10:09:29.876Z,492
2016-11-07T10:10:42.877Z,600
2016-11-07T10:11:56.758Z,668
2016-11-07T10:13:10.293Z,744
2016-11-07T10:14:21.797Z,856
2016-11-07T10:15:35.451Z,872
2016-11-07T10:16:48.545Z,820
2016-11-07T10:18:02.176Z,856
2016-11-07T10:19:15.773Z,900
2016-11-07T10:20:28.300Z,952
2016-11-07T10:21:41.978Z,1048
2016-11-07T10:22:55.567Z,1000
2016-11-07T10:24:09.202Z,988
2016-11-07T10:25:22.877Z,1096
2016-11-07T10:26:36.411Z,1156
2016-11-07T10:27:50.067Z,1084
2016-11-07T10:29:03.585Z,952
2016-11-07T10:30:16.106Z,916
2016-11-07T10:31:29.908Z,928
2016-11-07T10:32:43.557Z,960
2016-11-07T10:33:57.164Z,896
2016-11-07T10:35:10.248Z,824
2016-11-07T10:36:22.794Z,756
2016-11-07T10:37:36.467Z,708
2016-11-07T10:38:50.040Z,688
2016-11-07T10:40:03.099Z,684
2016-11-07T10:41:16.806Z,756
2016-11-07T10:42:29.804Z,872
2016-11-07T10:43:43.442Z,872
2016-11-07T10:44:56.994Z,812
2016-11-07T10:46:10.643Z,804
2016-11-07T10:47:24.253Z,728
2016-11-07T10:48:37.854Z,688
2016-11-07T10:49:50.957Z,720
2016-11-07T10:51:04.146Z,744
2016-11-07T10:52:16.730Z,704
2016-11-07T10:53:29.365Z,652
2016-11-07T10:54:42.459Z,636
2016-11-07T10:55:54.714Z,640
2016-11-07T10:57:08.330Z,688
2016-11-07T10:58:21.403Z,676
2016-11-07T10:59:34.475Z,568
2016-11-07T11:00:47.514Z,624
2016-11-07T11:02:00.632Z,576
2016-11-07T11:03:14.224Z,620
2016-11-07T11:04:28.010Z,624
2016-11-07T11:05:41.608Z,644
2016-11-07T11:06:55.219Z,660
2016-11-07T11:08:09.129Z,680
2016-11-07T11:09:22.211Z,668
2016-11-07T11:10:35.752Z,652
2016-11-07T11:11:49.378Z,644
2016-11-07T11:13:02.904Z,664
2016-11-07T11:14:16.480Z,684
2016-11-07T11:15:30.073Z,676
2016-11-07T11:16:42.651Z,668
2016-11-07T11:17:55.738Z,648
2016-11-07T11:19:08.797Z,676
2016-11-07T11:20:22.358Z,692
2016-11-07T11:21:36.066Z,696
2016-11-07T11:22:49.166Z,712
2016-11-07T11:24:02.228Z,688
2016-11-07T11:25:15.583Z,684
2016-11-07T11:26:28.693Z,676
2016-11-07T11:27:41.721Z,660
2016-11-07T11:28:55.390Z,588
2016-11-07T11:30:08.968Z,596
2016-11-07T11:31:21.544Z,600
2016-11-07T11:32:35.140Z,692
2016-11-07T11:33:47.661Z,724
2016-11-07T11:35:00.683Z,732
2016-11-07T11:36:14.307Z,732
2016-11-07T11:37:28.140Z,736
2016-11-07T11:38:41.747Z,740
2016-11-07T11:39:55.310Z,748
2016-11-07T11:41:07.885Z,748
2016-11-07T11:42:52.577Z,772
2016-11-07T11:44:05.606Z,732
2016-11-07T11:45:19.337Z,776
2016-11-07T11:46:32.995Z,828
2016-11-07T11:47:46.091Z,824
2016-11-07T11:48:59.840Z,852
2016-11-07T11:50:13.452Z,864
2016-11-07T11:51:27.048Z,808
2016-11-07T11:52:40.426Z,792
2016-11-07T11:53:54.043Z,804
2016-11-07T11:55:07.387Z,808
2016-11-07T11:56:20.989Z,772
2016-11-07T11:57:34.009Z,772
2016-11-07T11:58:47.635Z,724
2016-11-07T12:00:00.705Z,704
2016-11-07T12:01:14.383Z,708
2016-11-07T12:02:28.116Z,696
2016-11-07T12:03:41.223Z,688
2016-11-07T12:04:54.878Z,696
2016-11-07T12:06:08.496Z,712
2016-11-07T12:07:22.106Z,728
2016-11-07T12:08:35.166Z,744
2016-11-07T12:09:48.740Z,768
2016-11-07T12:11:02.336Z,792
2016-11-07T12:12:47.031Z,820
2016-11-07T12:14:00.103Z,844
2016-11-07T12:15:13.285Z,856
2016-11-07T12:16:26.943Z,864
2016-11-07T12:17:40.576Z,840
2016-11-07T12:18:53.719Z,860
2016-11-07T12:20:07.339Z,880
2016-11-07T12:21:20.990Z,972
2016-11-07T12:22:34.574Z,1128
2016-11-07T12:23:48.197Z,1120
2016-11-07T12:25:01.299Z,1020
2016-11-07T12:26:14.346Z,1060
2016-11-07T12:27:27.642Z,1140
2016-11-07T12:28:41.318Z,1208
2016-11-07T12:29:54.429Z,1232
2016-11-07T12:31:08.032Z,1316
2016-11-07T12:32:21.127Z,1184
2016-11-07T12:34:05.869Z,1240
2016-11-07T12:35:19.580Z,1364
2016-11-07T12:36:33.226Z,1444
2016-11-07T12:37:46.284Z,1696
2016-11-07T12:38:59.388Z,1276
2016-11-07T12:40:12.987Z,1224
2016-11-07T12:41:26.841Z,1500
2016-11-07T12:42:40.251Z,2440
2016-11-07T12:43:53.862Z,2324
2016-11-07T12:45:07.470Z,2444
2016-11-07T12:46:20.650Z,2792
2016-11-07T12:47:33.685Z,3108
2016-11-07T12:48:47.545Z,3396
2016-11-07T12:50:01.128Z,3708
2016-11-07T12:51:13.886Z,3992
2016-11-07T12:52:27.517Z,4144
2016-11-07T12:53:41.136Z,4504
2016-11-07T12:54:53.752Z,4684
2016-11-07T12:56:07.353Z,4912
2016-11-07T12:57:20.923Z,5052
2016-11-07T12:58:33.984Z,5084
2016-11-07T12:59:47.570Z,5132
2016-11-07T13:01:01.259Z,5084
2016-11-07T13:02:14.592Z,5216
2016-11-07T13:03:27.670Z,5228
2016-11-07T13:04:41.267Z,5252
2016-11-07T13:05:54.654Z,5292
2016-11-07T13:07:08.324Z,5372
2016-11-07T13:08:21.966Z,5444
2016-11-07T13:09:35.506Z,5540
2016-11-07T13:10:49.067Z,5608
2016-11-07T13:12:02.649Z,5680
2016-11-07T13:13:16.288Z,5692
2016-11-07T13:14:29.974Z,5756
2016-11-07T13:15:43.129Z,5812
2016-11-07T13:16:56.908Z,5816
2016-11-07T13:18:10.011Z,5800
2016-11-07T13:19:23.775Z,5920
2016-11-07T13:20:37.436Z,6016
2016-11-07T13:21:50.667Z,6120
2016-11-07T13:23:03.768Z,6244
2016-11-07T13:24:16.864Z,6364
2016-11-07T13:25:30.547Z,6424
2016-11-07T13:26:44.163Z,6352
2016-11-07T13:27:57.528Z,6440
2016-11-07T13:29:10.617Z,6592
2016-11-07T13:30:23.804Z,6692
2016-11-07T13:31:37.205Z,6820
2016-11-07T13:32:50.747Z,7004
2016-11-07T13:34:04.315Z,7136
2016-11-07T13:35:17.961Z,7264
2016-11-07T13:36:31.537Z,7388
2016-11-07T13:37:45.143Z,7436
2016-11-07T13:38:58.813Z,7440
2016-11-07T13:40:11.885Z,7472
2016-11-07T13:41:25.493Z,7516
2016-11-07T13:42:39.109Z,7580
2016-11-07T13:43:52.786Z,7556
2016-11-07T13:45:06.430Z,7624
2016-11-07T13:46:20.113Z,7668
2016-11-07T13:47:33.666Z,7744
2016-11-07T13:48:46.220Z,7840
2016-11-07T13:49:59.432Z,7956
2016-11-07T13:51:12.551Z,8064
2016-11-07T13:52:26.179Z,8204
2016-11-07T13:53:39.741Z,8372
2016-11-07T13:54:53.323Z,8600
2016-11-07T13:56:06.941Z,8876
2016-11-07T13:57:20.010Z,8968
2016-11-07T13:58:33.552Z,9172
2016-11-07T13:59:47.150Z,8624
2016-11-07T14:01:00.479Z,8952
2016-11-07T14:02:13.849Z,8832
2016-11-07T14:03:26.997Z,8808
2016-11-07T14:04:40.674Z,8984
2016-11-07T14:05:53.781Z,9088
2016-11-07T14:07:06.809Z,9024
2016-11-07T14:08:19.101Z,9200
2016-11-07T14:09:32.731Z,7528
2016-11-07T14:10:45.814Z,9388
2016-11-07T14:11:58.911Z,9528
2016-11-07T14:13:12.697Z,10048
2016-11-07T14:14:26.280Z,10080
2016-11-07T14:15:39.971Z,3160
2016-11-07T14:16:53.792Z,10344
2016-11-07T14:18:07.379Z,10540
2016-11-07T14:19:21.079Z,4284
2016-11-07T14:20:34.728Z,1676
2016-11-07T14:21:48.241Z,1996
2016-11-07T14:23:01.873Z,11012
2016-11-07T14:24:15.473Z,5892
2016-11-07T14:25:28.674Z,2300
2016-11-07T14:26:41.803Z,2088
2016-11-07T14:27:54.870Z,2432
2016-11-07T14:29:08.243Z,11340
2016-11-07T14:30:21.902Z,2044
2016-11-07T14:31:35.484Z,11800
2016-11-07T14:32:49.065Z,2744
2016-11-07T14:34:02.152Z,2596
2016-11-07T14:35:14.139Z,11364
2016-11-07T14:36:27.767Z,11956
2016-11-07T14:37:40.854Z,12104
2016-11-07T14:38:53.884Z,6932
2016-11-07T14:40:06.972Z,12744
2016-11-07T14:41:20.042Z,12548
2016-11-07T14:42:33.101Z,4304
2016-11-07T14:43:46.191Z,12136
2016-11-07T14:44:59.619Z,7668
2016-11-07T14:46:13.308Z,3668
2016-11-07T14:47:27.035Z,3456
2016-11-07T14:48:40.116Z,12092
2016-11-07T14:49:53.882Z,12160
2016-11-07T14:51:07.014Z,12420
2016-11-07T14:52:20.129Z,12052
2016-11-07T14:53:33.800Z,12192
2016-11-07T14:54:46.352Z,12288
2016-11-07T14:55:59.218Z,12420
2016-11-07T14:57:13.092Z,12396
2016-11-07T14:58:26.491Z,12200
2016-11-07T14:59:39.325Z,12096
2016-11-07T15:00:52.417Z,4332
2016-11-07T15:02:06.046Z,1768
2016-11-07T15:03:19.680Z,1892
2016-11-07T15:04:33.349Z,2192
2016-11-07T15:05:46.686Z,1676
2016-11-07T15:06:59.761Z,1636
2016-11-07T15:08:13.421Z,1980
2016-11-07T15:09:27.050Z,2760
2016-11-07T15:10:40.925Z,10568
2016-11-07T15:11:54.604Z,13016
2016-11-07T15:13:08.266Z,13048
2016-11-07T15:14:21.496Z,12964
2016-11-07T15:15:35.089Z,12144
2016-11-07T15:16:48.701Z,12356
2016-11-07T15:18:02.301Z,12632
2016-11-07T15:19:15.872Z,11912
2016-11-07T15:20:29.448Z,11376
2016-11-07T15:21:43.073Z,12600
2016-11-07T15:22:56.976Z,12352
2016-11-07T15:24:10.634Z,12604
2016-11-07T15:25:24.010Z,12744
2016-11-07T15:26:37.652Z,12736
2016-11-07T15:27:50.877Z,12580
2016-11-07T15:29:03.970Z,12088
2016-11-07T15:30:17.707Z,12420
2016-11-07T15:31:30.781Z,12540
2016-11-07T15:32:44.039Z,12552
2016-11-07T15:33:57.610Z,12496
2016-11-07T15:35:11.027Z,12472
2016-11-07T15:36:24.637Z,12632
2016-11-07T15:37:37.964Z,12704
2016-11-07T15:38:51.670Z,12664
2016-11-07T15:40:05.694Z,12768
2016-11-07T15:41:19.313Z,12936
2016-11-07T15:42:32.929Z,12804
2016-11-07T15:45:29.649Z,12688
2016-11-07T15:46:43.340Z,12512
2016-11-07T15:47:57.072Z,12656
2016-11-07T15:49:10.156Z,12764
2016-11-07T15:50:23.971Z,12832
2016-11-07T15:51:37.051Z,12724
2016-11-07T15:52:50.139Z,12644
2016-11-07T15:54:03.836Z,12740
2016-11-07T15:55:16.971Z,12668
2016-11-07T15:56:30.601Z,12576
2016-11-07T15:57:44.201Z,12920
2016-11-07T15:58:57.872Z,12652
2016-11-07T16:00:10.995Z,12640
2016-11-07T16:01:24.563Z,12680
2016-11-07T16:02:38.133Z,12560
2016-11-07T16:03:51.720Z,12448
2016-11-07T16:05:05.355Z,12644
2016-11-07T16:06:18.449Z,12940
2016-11-07T16:07:32.113Z,12076
2016-11-07T16:08:45.771Z,12636
2016-11-07T16:09:59.353Z,12604
2016-11-07T16:11:13.043Z,12436
2016-11-07T16:12:26.915Z,12384
2016-11-07T16:13:40.673Z,12760
2016-11-07T16:14:53.398Z,12844
2016-11-07T16:16:07.035Z,12408
2016-11-07T16:17:20.955Z,12496
2016-11-07T16:18:34.104Z,12532
2016-11-07T16:19:47.774Z,12548
2016-11-07T16:21:01.384Z,12644
2016-11-07T16:22:15.052Z,12660
2016-11-07T16:23:28.783Z,12856
2016-11-07T16:24:42.451Z,13180
2016-11-07T16:25:56.034Z,12540
2016-11-07T16:27:09.659Z,12708
2016-11-07T16:28:23.295Z,12524
2016-11-07T16:29:35.858Z,2096
2016-11-07T16:30:49.568Z,1864
2016-11-07T16:32:03.178Z,2020
2016-11-07T16:33:16.770Z,2256
2016-11-07T16:34:30.418Z,2176
2016-11-07T16:35:43.536Z,2356
2016-11-07T16:36:57.093Z,2564
2016-11-07T16:38:10.251Z,2272
2016-11-07T16:39:23.550Z,2916
2016-11-07T16:40:37.174Z,10904
2016-11-07T16:41:50.258Z,4792
2016-11-07T16:43:03.805Z,1816
2016-11-07T16:44:16.904Z,1648
2016-11-07T16:45:29.941Z,1580
2016-11-07T16:46:43.442Z,1644
2016-11-07T16:47:57.056Z,1868
2016-11-07T16:49:10.636Z,2136
2016-11-07T16:50:24.293Z,2328
2016-11-07T16:51:37.390Z,2212
2016-11-07T16:52:50.963Z,2316
2016-11-07T16:54:04.572Z,2816
2016-11-07T16:55:17.760Z,3944
2016-11-07T16:56:30.822Z,7720
2016-11-07T16:57:44.477Z,2720
2016-11-07T16:58:58.264Z,3568
2016-11-07T17:00:11.415Z,9464
2016-11-07T17:01:24.531Z,2636
2016-11-07T17:02:38.240Z,4568
2016-11-07T17:03:51.867Z,2680
2016-11-07T17:05:05.523Z,3176
2016-11-07T17:06:19.176Z,7048
2016-11-07T17:07:32.783Z,7148
2016-11-07T17:08:45.298Z,9860
2016-11-07T17:09:59.021Z,9712
2016-11-07T17:11:12.375Z,9552
2016-11-07T17:12:25.452Z,9640
2016-11-07T17:13:39.096Z,3820
2016-11-07T17:14:52.236Z,4916
2016-11-07T17:16:05.878Z,8484
2016-11-07T17:17:19.472Z,9544
2016-11-07T17:18:32.548Z,9016